Time;durP1;ratioP1;P1;durP2;ratioP2;P2;SDS_P1;SDS_P2;PMS_P1;PMS_P2;Temp;Humidity;BMP_temperature;BMP_pressure;BME280_temperature;BME280_humidity;BME280_pressure;Samples;Min_cycle;Max_cycle;Signal;HPM_P1;HPM_P2
2023/01/27 00:00:48;;;;;;;1.60;1.50;;;18.70;36.30;;;;;;4951739;28;20494;-64
2023/01/27 00:03:14;;;;;;;1.40;1.30;;;18.70;36.30;;;;;;4957248;28;20223;-65
2023/01/27 00:05:40;;;;;;;1.70;1.60;;;18.60;36.20;;;;;;4952782;28;21881;-63
2023/01/27 00:08:06;;;;;;;1.50;1.40;;;18.70;36.30;;;;;;4957732;28;20673;-66
2023/01/27 00:10:31;;;;;;;1.67;1.57;;;18.70;36.30;;;;;;4952291;28;20463;-62
2023/01/27 00:15:41;;;;;;;1.90;1.80;;;18.70;36.30;;;;;;4947471;28;21047;-65
2023/01/27 00:18:07;;;;;;;1.70;1.60;;;18.60;36.20;;;;;;4957416;28;20505;-70
2023/01/27 00:26:11;;;;;;;1.80;1.70;;;18.70;36.30;;;;;;4952548;28;20453;-65
2023/01/27 00:28:38;;;;;;;1.93;1.73;;;18.60;36.20;;;;;;4954570;28;20456;-64
2023/01/27 00:31:05;;;;;;;1.50;1.40;;;18.70;36.30;;;;;;4957630;28;20925;-62
2023/01/27 00:33:30;;;;;;;1.50;1.40;;;18.60;36.20;;;;;;4959623;28;20441;-64
2023/01/27 00:35:58;;;;;;;1.50;1.40;;;18.70;36.30;;;;;;4957303;28;20475;-64
2023/01/27 00:38:25;;;;;;;1.60;1.50;;;18.60;36.20;;;;;;4959327;28;20213;-61
2023/01/27 00:43:51;;;;;;;2.27;1.40;;;18.60;36.20;;;;;;4935699;28;20762;-65
2023/01/27 00:46:18;;;;;;;1.70;1.57;;;18.60;36.20;;;;;;4953330;28;20457;-71
2023/01/27 00:48:44;;;;;;;1.77;1.40;;;18.60;36.20;;;;;;4959620;28;20485;-68
2023/01/27 00:51:10;;;;;;;1.43;1.33;;;18.60;36.20;;;;;;4960794;28;20462;-63
2023/01/27 00:53:36;;;;;;;1.50;1.40;;;18.60;36.20;;;;;;4958442;28;20673;-62
2023/01/27 00:56:02;;;;;;;1.50;1.40;;;18.60;36.20;;;;;;4958111;28;20437;-65
2023/01/27 00:58:28;;;;;;;1.60;1.50;;;18.60;36.30;;;;;;4958247;28;20217;-68
2023/01/27 01:00:59;;;;;;;1.50;1.30;;;18.70;36.30;;;;;;4954213;28;20247;-72
2023/01/27 01:03:30;;;;;;;1.67;1.57;;;18.60;36.20;;;;;;4955519;28;20421;-66
2023/01/27 01:05:56;;;;;;;1.47;1.37;;;18.60;36.20;;;;;;4955349;28;20877;-64
2023/01/27 01:08:22;;;;;;;1.40;1.30;;;18.60;36.20;;;;;;4957217;28;20439;-62
2023/01/27 01:10:47;;;;;;;1.63;1.53;;;18.60;36.20;;;;;;4959214;28;20444;-62
2023/01/27 01:13:13;;;;;;;1.37;1.27;;;18.60;36.20;;;;;;4962309;28;20235;-66
2023/01/27 01:15:39;;;;;;;1.30;1.20;;;18.60;36.30;;;;;;4959561;28;20220;-69
2023/01/27 01:18:06;;;;;;;1.30;1.20;;;18.60;36.20;;;;;;4962402;28;20224;-62
2023/01/27 01:20:37;;;;;;;1.40;1.30;;;18.60;36.20;;;;;;4959939;28;20470;-63
2023/01/27 01:23:03;;;;;;;1.30;1.20;;;18.60;36.30;;;;;;4960268;28;20526;-65
2023/01/27 01:25:28;;;;;;;1.30;1.20;;;18.60;36.30;;;;;;4959003;28;20538;-62
2023/01/27 01:27:54;;;;;;;1.33;1.23;;;18.60;36.30;;;;;;4959170;28;20992;-62
2023/01/27 01:30:20;;;;;;;1.77;1.10;;;18.60;36.20;;;;;;4958960;28;20663;-68
2023/01/27 01:32:46;;;;;;;1.63;1.53;;;18.60;36.20;;;;;;4961298;28;20672;-71
2023/01/27 01:35:11;;;;;;;1.40;1.30;;;18.60;36.20;;;;;;4960724;28;20502;-63
2023/01/27 01:37:37;;;;;;;1.60;1.50;;;18.60;36.50;;;;;;4960609;28;20417;-62
2023/01/27 01:40:03;;;;;;;1.23;1.10;;;18.60;36.20;;;;;;4961001;28;20236;-64
2023/01/27 01:42:54;;;;;;;1.30;1.20;;;18.60;36.20;;;;;;4957716;28;20224;-65
2023/01/27 01:45:35;;;;;;;1.30;1.20;;;18.60;36.50;;;;;;4959253;28;20692;-64
2023/01/27 01:48:04;;;;;;;1.20;1.10;;;18.60;37.10;;;;;;4958147;28;20981;-65
2023/01/27 01:50:30;;;;;;;1.80;1.30;;;18.60;36.30;;;;;;4959304;28;20962;-64
2023/01/27 01:52:58;;;;;;;1.20;1.10;;;18.60;36.30;;;;;;4959210;28;21188;-64
2023/01/27 01:55:23;;;;;;;1.30;1.20;;;18.60;36.30;;;;;;4960215;28;20521;-62
2023/01/27 01:57:50;;;;;;;1.10;1.00;;;18.60;36.30;;;;;;4961026;28;20466;-64
2023/01/27 02:00:16;;;;;;;2.50;1.50;;;18.60;36.30;;;;;;4956954;28;20233;-64
2023/01/27 02:02:42;;;;;;;1.20;1.10;;;18.60;36.30;;;;;;4959780;28;20432;-64
2023/01/27 02:05:15;;;;;;;1.40;1.30;;;18.60;36.20;;;;;;4960456;28;20492;-62
2023/01/27 02:08:05;;;;;;;1.43;1.33;;;18.60;36.20;;;;;;4961813;28;20993;-64
2023/01/27 02:10:32;;;;;;;1.30;1.20;;;18.60;36.20;;;;;;4951496;28;22157;-63
2023/01/27 02:12:58;;;;;;;1.40;1.30;;;18.60;36.30;;;;;;4960812;28;20450;-66
2023/01/27 02:15:24;;;;;;;1.10;1.00;;;18.60;36.30;;;;;;4957307;28;20471;-73
2023/01/27 02:17:49;;;;;;;1.63;1.50;;;18.60;36.20;;;;;;4960175;28;20271;-63
2023/01/27 02:20:33;;;;;;;1.83;1.73;;;18.60;36.30;;;;;;4958425;28;20240;-64
2023/01/27 02:23:19;;;;;;;1.23;1.13;;;18.60;36.20;;;;;;4957842;28;20225;-65
2023/01/27 02:26:04;;;;;;;1.33;1.13;;;18.60;36.30;;;;;;4958092;28;20470;-61
2023/01/27 02:28:30;;;;;;;1.50;1.30;;;18.60;36.20;;;;;;4959937;28;20425;-63
2023/01/27 02:30:56;;;;;;;1.20;1.10;;;18.60;36.30;;;;;;4960047;28;20452;-66
2023/01/27 02:33:22;;;;;;;2.57;1.10;;;18.60;36.20;;;;;;4960465;28;20474;-66
2023/01/27 02:35:52;;;;;;;1.23;1.10;;;18.60;36.20;;;;;;4958896;28;20470;-62
2023/01/27 02:38:18;;;;;;;1.70;1.60;;;18.60;36.20;;;;;;4957023;28;20538;-73
2023/01/27 02:40:46;;;;;;;1.10;1.00;;;18.60;36.20;;;;;;4958529;28;20506;-72
2023/01/27 02:43:12;;;;;;;1.10;1.00;;;18.60;36.30;;;;;;4958980;28;20433;-64
2023/01/27 02:45:37;;;;;;;1.10;1.00;;;18.60;36.20;;;;;;4959850;28;20463;-64
2023/01/27 02:48:03;;;;;;;1.50;1.40;;;18.60;36.20;;;;;;4959714;28;20331;-63
2023/01/27 02:50:29;;;;;;;1.30;1.20;;;18.60;36.20;;;;;;4960448;28;20232;-71
2023/01/27 02:52:54;;;;;;;1.33;1.23;;;18.60;36.30;;;;;;4958025;28;20225;-61
2023/01/27 02:55:20;;;;;;;1.00;0.90;;;18.60;36.20;;;;;;4952999;28;20220;-65
2023/01/27 02:57:45;;;;;;;1.60;1.50;;;18.60;36.30;;;;;;4962475;28;20216;-65
2023/01/27 03:00:14;;;;;;;1.20;1.10;;;18.60;36.30;;;;;;4955960;28;20823;-67
2023/01/27 03:02:40;;;;;;;1.83;1.30;;;18.60;36.30;;;;;;4962763;28;20222;-63
2023/01/27 03:05:06;;;;;;;1.20;1.10;;;18.60;36.30;;;;;;4957966;28;20471;-64
2023/01/27 03:07:31;;;;;;;1.07;0.97;;;18.60;36.30;;;;;;4961075;28;20224;-64
2023/01/27 03:09:57;;;;;;;1.50;1.23;;;18.60;36.30;;;;;;4955194;28;20220;-67
2023/01/27 03:12:23;;;;;;;1.30;1.20;;;18.60;36.30;;;;;;4955535;28;20229;-64
2023/01/27 03:20:21;;;;;;;1.50;1.40;;;18.60;36.30;;;;;;4956939;28;20512;-61
2023/01/27 03:22:47;;;;;;;1.10;1.03;;;18.60;36.30;;;;;;4957681;28;20571;-63
2023/01/27 03:25:12;;;;;;;1.30;1.10;;;18.60;36.30;;;;;;4958684;28;20471;-69
2023/01/27 03:27:38;;;;;;;1.27;1.17;;;18.60;36.30;;;;;;4955144;28;20311;-65
2023/01/27 03:30:04;;;;;;;1.40;1.30;;;18.60;36.30;;;;;;4953662;28;20244;-62
2023/01/27 03:32:31;;;;;;;1.20;1.10;;;18.60;36.20;;;;;;4961503;28;20272;-62
2023/01/27 03:34:57;;;;;;;1.30;1.20;;;18.60;36.30;;;;;;4956098;28;20486;-68
2023/01/27 03:48:30;;;;;;;1.20;1.10;;;18.60;36.20;;;;;;4959737;28;20565;-65
2023/01/27 03:51:01;;;;;;;1.17;1.07;;;18.60;36.20;;;;;;4957229;28;20508;-71
2023/01/27 03:53:27;;;;;;;2.40;1.30;;;18.60;36.10;;;;;;4957169;28;20417;-66
2023/01/27 03:55:53;;;;;;;1.23;1.13;;;18.60;36.20;;;;;;4957689;28;20451;-64
2023/01/27 03:58:25;;;;;;;1.07;0.97;;;18.60;36.20;;;;;;4960226;28;20220;-63
2023/01/27 04:00:56;;;;;;;1.10;1.00;;;18.60;36.10;;;;;;4949737;28;20260;-67
2023/01/27 04:08:59;;;;;;;1.20;1.10;;;18.60;36.20;;;;;;4960941;28;20489;-62
2023/01/27 04:14:10;;;;;;;1.40;1.30;;;18.60;36.20;;;;;;4959766;28;20523;-64
2023/01/27 04:16:37;;;;;;;1.20;1.10;;;18.60;36.30;;;;;;4956798;28;20933;-66
2023/01/27 04:19:05;;;;;;;1.20;1.10;;;18.60;36.20;;;;;;4963349;28;20449;-65
2023/01/27 04:21:31;;;;;;;1.93;1.50;;;18.60;36.20;;;;;;4961579;28;20789;-69
2023/01/27 04:23:56;;;;;;;1.00;0.90;;;18.60;36.20;;;;;;4960141;28;20463;-63
2023/01/27 04:26:23;;;;;;;1.47;1.37;;;18.60;36.20;;;;;;4960706;28;23693;-63
2023/01/27 04:28:49;;;;;;;1.63;1.53;;;18.60;36.20;;;;;;4957835;28;20213;-63
2023/01/27 04:31:15;;;;;;;2.20;1.63;;;18.60;36.20;;;;;;4958811;28;21159;-65
2023/01/27 04:33:42;;;;;;;0.97;0.97;;;18.60;36.20;;;;;;4960628;28;21801;-68
2023/01/27 04:36:08;;;;;;;1.10;1.00;;;18.60;36.20;;;;;;4960537;28;20467;-63
2023/01/27 04:38:33;;;;;;;1.30;1.20;;;18.60;36.20;;;;;;4966143;28;20414;-64
2023/01/27 04:40:59;;;;;;;1.30;1.20;;;18.60;36.20;;;;;;4959936;28;20296;-67
2023/01/27 04:43:24;;;;;;;1.33;1.17;;;18.60;36.10;;;;;;4962671;28;20304;-63
2023/01/27 04:45:50;;;;;;;1.20;1.10;;;18.60;36.10;;;;;;4959878;28;20676;-62
2023/01/27 04:48:15;;;;;;;1.20;1.10;;;18.60;36.10;;;;;;4961444;28;20736;-67
2023/01/27 04:50:41;;;;;;;1.00;0.90;;;18.70;36.20;;;;;;4959684;28;20235;-63
2023/01/27 04:53:06;;;;;;;1.17;1.07;;;18.60;36.00;;;;;;4962985;28;20279;-74
2023/01/27 04:55:32;;;;;;;1.10;1.00;;;18.70;36.10;;;;;;4962018;28;21256;-66
2023/01/27 04:57:57;;;;;;;1.20;1.10;;;18.70;36.10;;;;;;4962024;28;20259;-68
2023/01/27 05:00:23;;;;;;;1.20;1.10;;;18.70;36.10;;;;;;4958640;28;20244;-65
2023/01/27 05:02:49;;;;;;;1.23;1.13;;;18.70;36.10;;;;;;4965908;28;20225;-62
2023/01/27 05:05:14;;;;;;;1.20;1.10;;;18.70;36.10;;;;;;4961142;28;20276;-65
2023/01/27 05:07:40;;;;;;;1.40;1.30;;;18.70;36.10;;;;;;4961865;28;20623;-73
2023/01/27 05:10:06;;;;;;;1.10;1.00;;;18.70;36.10;;;;;;4960109;28;20592;-68
2023/01/27 05:12:32;;;;;;;1.13;1.03;;;18.70;36.10;;;;;;4962180;28;20272;-62
2023/01/27 05:14:58;;;;;;;1.00;0.90;;;18.70;36.00;;;;;;4958876;28;21051;-65
2023/01/27 05:17:23;;;;;;;1.20;1.10;;;18.70;36.00;;;;;;4957097;28;20236;-62
2023/01/27 05:19:49;;;;;;;1.20;1.10;;;18.70;36.00;;;;;;4952665;28;20294;-68
2023/01/27 05:22:14;;;;;;;1.10;1.00;;;18.70;36.00;;;;;;4959083;28;20228;-63
2023/01/27 05:24:40;;;;;;;0.90;0.90;;;18.70;36.10;;;;;;4956852;28;20280;-69
2023/01/27 05:27:05;;;;;;;1.00;0.90;;;18.80;36.10;;;;;;4958058;28;20245;-75
2023/01/27 05:29:31;;;;;;;1.27;1.17;;;18.80;36.10;;;;;;4953787;28;20244;-64
2023/01/27 05:31:57;;;;;;;1.03;0.93;;;18.80;36.10;;;;;;4958548;28;20235;-63
2023/01/27 05:34:23;;;;;;;1.27;1.17;;;18.80;36.10;;;;;;4952828;28;23683;-67
2023/01/27 05:36:48;;;;;;;1.13;1.03;;;18.80;36.00;;;;;;4958152;28;20303;-66
2023/01/27 05:39:14;;;;;;;1.20;1.10;;;18.80;36.00;;;;;;4955762;28;20444;-65
2023/01/27 05:41:40;;;;;;;1.20;1.10;;;18.80;36.00;;;;;;4957310;28;22032;-67
2023/01/27 05:44:05;;;;;;;1.17;1.07;;;18.80;36.00;;;;;;4948572;28;20225;-67
2023/01/27 05:46:32;;;;;;;1.30;1.20;;;18.80;36.00;;;;;;4952096;28;20233;-65
2023/01/27 05:49:03;;;;;;;1.13;1.03;;;18.80;35.90;;;;;;4957376;28;20253;-66
2023/01/27 05:51:31;;;;;;;1.07;1.00;;;18.80;36.00;;;;;;4955152;28;20962;-62
2023/01/27 05:53:57;;;;;;;1.20;1.10;;;18.80;36.00;;;;;;4953893;28;21030;-64
2023/01/27 05:56:22;;;;;;;1.40;1.30;;;18.80;36.00;;;;;;4953703;28;20499;-63
2023/01/27 05:58:48;;;;;;;1.20;1.10;;;18.80;36.00;;;;;;4957809;28;20312;-66
2023/01/27 06:01:19;;;;;;;1.30;1.10;;;18.80;36.00;;;;;;4951702;28;20261;-62
2023/01/27 06:03:45;;;;;;;1.10;1.00;;;18.80;36.00;;;;;;4955594;28;20236;-62
2023/01/27 06:06:12;;;;;;;1.17;1.07;;;18.80;36.00;;;;;;4959424;28;20466;-66
2023/01/27 06:08:38;;;;;;;1.43;1.33;;;18.80;36.10;;;;;;4960333;28;20466;-64
2023/01/27 06:11:05;;;;;;;1.13;1.03;;;18.80;36.10;;;;;;4953559;28;20466;-64
2023/01/27 06:13:30;;;;;;;1.23;1.13;;;18.80;36.10;;;;;;4955278;28;20488;-66
2023/01/27 06:15:56;;;;;;;1.30;1.20;;;18.80;36.00;;;;;;4951190;28;20873;-64
2023/01/27 06:18:23;;;;;;;1.23;1.13;;;18.80;36.00;;;;;;4951332;28;20213;-66
2023/01/27 06:20:48;;;;;;;1.20;1.10;;;18.80;36.00;;;;;;4950906;28;20756;-67
2023/01/27 06:23:16;;;;;;;1.40;1.30;;;18.80;36.00;;;;;;4955330;28;20463;-65
2023/01/27 06:25:44;;;;;;;1.40;1.30;;;18.80;36.00;;;;;;4955322;28;20774;-66
2023/01/27 06:28:10;;;;;;;1.30;1.20;;;18.80;36.00;;;;;;4953397;28;20584;-65
2023/01/27 06:30:37;;;;;;;1.20;1.10;;;18.80;36.00;;;;;;4955973;28;20509;-66
2023/01/27 06:33:03;;;;;;;1.30;1.20;;;18.80;36.00;;;;;;4961760;28;20629;-66
2023/01/27 06:35:31;;;;;;;1.10;0.90;;;18.80;35.90;;;;;;4955038;28;20461;-66
2023/01/27 06:38:00;;;;;;;1.20;1.10;;;18.80;35.90;;;;;;4957577;28;20533;-66
2023/01/27 06:40:27;;;;;;;1.40;1.30;;;18.80;36.00;;;;;;4953877;28;20464;-64
2023/01/27 06:42:53;;;;;;;1.30;1.20;;;18.80;36.70;;;;;;4959219;28;20423;-66
2023/01/27 06:45:19;;;;;;;1.20;1.10;;;18.80;36.10;;;;;;4953574;28;21100;-65
2023/01/27 06:47:45;;;;;;;1.20;1.10;;;18.80;36.00;;;;;;4960687;28;20581;-65
2023/01/27 06:50:11;;;;;;;1.40;1.30;;;18.80;36.00;;;;;;4938636;28;20990;-65
2023/01/27 06:52:37;;;;;;;1.80;1.20;;;18.80;36.00;;;;;;4942716;28;20275;-65
2023/01/27 06:55:03;;;;;;;1.10;1.00;;;18.80;36.00;;;;;;4940601;28;21030;-66
2023/01/27 06:57:29;;;;;;;1.40;1.10;;;18.80;36.80;;;;;;4940862;28;20443;-66
2023/01/27 06:59:55;;;;;;;1.63;1.20;;;18.80;36.10;;;;;;4939286;28;20438;-65
2023/01/27 07:02:20;;;;;;;1.00;1.00;;;18.80;36.10;;;;;;4940251;28;20225;-65
2023/01/27 07:04:46;;;;;;;1.20;1.10;;;18.80;36.10;;;;;;4941608;28;20332;-65
2023/01/27 07:07:11;;;;;;;1.20;1.10;;;18.80;36.10;;;;;;4937577;28;20693;-66
2023/01/27 07:09:37;;;;;;;1.20;1.10;;;18.80;36.10;;;;;;4939389;28;20232;-66
2023/01/27 07:12:03;;;;;;;1.20;1.10;;;18.80;36.10;;;;;;4941062;28;20228;-66
2023/01/27 07:14:28;;;;;;;1.10;1.00;;;18.80;36.20;;;;;;4939541;28;20240;-65
2023/01/27 07:16:54;;;;;;;1.20;1.10;;;18.80;36.10;;;;;;4939046;28;20232;-65
2023/01/27 07:19:19;;;;;;;1.10;0.93;;;18.80;36.10;;;;;;4938926;28;20230;-66
2023/01/27 07:21:45;;;;;;;1.83;1.10;;;18.80;36.10;;;;;;4940403;28;20225;-67
2023/01/27 07:24:10;;;;;;;1.30;1.20;;;18.80;36.10;;;;;;4933273;28;20225;-66
2023/01/27 07:26:36;;;;;;;1.50;1.40;;;18.80;36.10;;;;;;4939387;28;20225;-65
2023/01/27 07:29:01;;;;;;;1.30;1.20;;;18.80;36.10;;;;;;4940432;28;20293;-65
2023/01/27 07:31:27;;;;;;;0.90;0.90;;;18.80;36.10;;;;;;4940110;28;20650;-65
2023/01/27 07:33:52;;;;;;;1.33;1.10;;;18.80;36.10;;;;;;4939121;28;23151;-65
2023/01/27 07:36:18;;;;;;;1.10;1.00;;;18.80;36.10;;;;;;4938657;28;20638;-65
2023/01/27 07:38:47;;;;;;;1.27;1.00;;;18.80;36.10;;;;;;4940209;28;20296;-66
2023/01/27 07:41:13;;;;;;;1.30;1.20;;;18.80;36.20;;;;;;4935872;28;20248;-65
2023/01/27 07:43:38;;;;;;;1.10;1.00;;;18.80;36.10;;;;;;4941556;28;20447;-66
2023/01/27 07:46:04;;;;;;;1.17;1.07;;;18.80;36.20;;;;;;4938861;28;20231;-65
2023/01/27 07:48:30;;;;;;;1.20;1.10;;;18.80;36.10;;;;;;4947797;28;20845;-65
2023/01/27 07:50:56;;;;;;;1.10;1.00;;;18.80;36.10;;;;;;4956078;28;20233;-65
2023/01/27 07:53:21;;;;;;;1.23;1.13;;;18.80;36.90;;;;;;4959272;28;20469;-66
2023/01/27 07:55:47;;;;;;;1.20;1.10;;;18.80;36.10;;;;;;4954522;28;20235;-66
2023/01/27 07:58:12;;;;;;;1.63;0.87;;;18.80;36.10;;;;;;4956346;28;20229;-65
2023/01/27 08:00:38;;;;;;;2.13;1.93;;;18.80;36.20;;;;;;4956433;28;20268;-65
2023/01/27 08:03:04;;;;;;;1.53;1.00;;;18.80;36.20;;;;;;4957593;28;20232;-65
2023/01/27 08:05:32;;;;;;;1.10;1.00;;;18.80;36.20;;;;;;4959278;28;20700;-66
2023/01/27 08:08:02;;;;;;;1.20;1.10;;;18.80;36.10;;;;;;4959427;28;20429;-67
2023/01/27 08:10:29;;;;;;;1.20;1.00;;;18.80;36.10;;;;;;4957971;28;20948;-65
2023/01/27 08:12:54;;;;;;;1.13;1.00;;;18.80;36.20;;;;;;4956125;28;20497;-65
2023/01/27 08:15:21;;;;;;;1.23;0.93;;;18.80;36.20;;;;;;4951115;28;20852;-66
2023/01/27 08:17:57;;;;;;;2.00;1.10;;;18.80;36.10;;;;;;4950079;28;20309;-65
2023/01/27 08:20:24;;;;;;;1.00;0.90;;;18.80;36.20;;;;;;4949719;28;20482;-67
2023/01/27 08:22:50;;;;;;;1.43;1.00;;;18.80;36.10;;;;;;4954918;28;20933;-67
2023/01/27 08:25:15;;;;;;;1.53;1.00;;;18.80;36.10;;;;;;4955210;28;20433;-65
2023/01/27 08:27:41;;;;;;;1.00;1.00;;;18.80;36.10;;;;;;4958668;28;20233;-65
2023/01/27 08:30:07;;;;;;;1.00;0.90;;;18.80;36.10;;;;;;4955493;28;20225;-65
2023/01/27 08:32:33;;;;;;;1.10;1.00;;;18.80;36.10;;;;;;4956790;28;20228;-65
2023/01/27 08:34:59;;;;;;;1.00;1.00;;;18.80;36.10;;;;;;4946376;28;20430;-65
2023/01/27 08:37:24;;;;;;;1.10;1.00;;;18.80;36.10;;;;;;4958550;28;20429;-60
2023/01/27 08:39:50;;;;;;;1.10;1.00;;;18.80;36.10;;;;;;4956461;28;20233;-69
2023/01/27 08:42:16;;;;;;;1.07;0.97;;;18.80;36.10;;;;;;4956019;28;20220;-68
2023/01/27 08:44:41;;;;;;;1.10;1.00;;;18.80;36.10;;;;;;4954715;28;20229;-68
2023/01/27 08:47:07;;;;;;;1.07;0.97;;;18.80;36.10;;;;;;4953639;28;20280;-68
2023/01/27 08:49:32;;;;;;;1.03;1.00;;;18.80;36.10;;;;;;4955105;28;20752;-67
2023/01/27 08:51:58;;;;;;;1.13;1.03;;;18.80;36.80;;;;;;4960515;28;20229;-68
2023/01/27 08:54:23;;;;;;;1.10;1.00;;;18.80;36.10;;;;;;4960223;28;20276;-68
2023/01/27 08:56:49;;;;;;;1.50;1.40;;;18.80;36.10;;;;;;4960274;28;20224;-68
2023/01/27 08:59:14;;;;;;;1.13;1.10;;;18.80;36.10;;;;;;4961409;28;20217;-68
2023/01/27 09:01:40;;;;;;;1.13;1.03;;;18.80;36.10;;;;;;4959554;28;20263;-68
2023/01/27 09:04:06;;;;;;;0.90;0.90;;;18.80;36.80;;;;;;4960264;28;20217;-67
2023/01/27 09:06:31;;;;;;;0.90;0.90;;;18.80;36.10;;;;;;4957228;28;20547;-67
2023/01/27 09:09:31;;;;;;;0.90;0.90;;;18.80;36.10;;;;;;4956786;28;20224;-68
2023/01/27 09:11:49;;;;;;;1.20;1.10;;;18.80;36.10;;;;;;4949391;28;20737;-68
2023/01/27 09:14:14;;;;;;;1.03;1.00;;;18.80;36.10;;;;;;4955860;28;20471;-67
2023/01/27 09:16:40;;;;;;;0.80;0.73;;;18.80;36.20;;;;;;4962130;28;20360;-68
2023/01/27 09:19:06;;;;;;;0.90;0.90;;;18.80;36.10;;;;;;4961482;28;20274;-67
2023/01/27 09:21:31;;;;;;;1.13;1.03;;;18.80;36.10;;;;;;4962205;28;20228;-67
2023/01/27 09:23:57;;;;;;;1.07;1.00;;;18.80;36.10;;;;;;4960747;28;20217;-68
2023/01/27 09:26:22;;;;;;;1.03;0.90;;;18.80;36.20;;;;;;4960479;28;20280;-68
2023/01/27 09:28:48;;;;;;;0.90;0.90;;;18.80;36.20;;;;;;4961970;28;20278;-67
2023/01/27 09:31:13;;;;;;;1.00;0.90;;;18.80;36.20;;;;;;4957315;28;20220;-67
2023/01/27 09:33:39;;;;;;;1.00;0.90;;;18.70;36.10;;;;;;4960415;28;20283;-67
2023/01/27 09:36:10;;;;;;;1.07;0.97;;;18.70;36.10;;;;;;4960027;28;20233;-67
2023/01/27 09:38:42;;;;;;;0.90;0.90;;;18.70;36.20;;;;;;4961189;28;20231;-67
2023/01/27 09:41:40;;;;;;;1.00;0.90;;;18.80;36.20;;;;;;4959564;28;20474;-67
2023/01/27 09:44:37;;;;;;;1.03;0.93;;;18.70;36.10;;;;;;4948241;28;20429;-67
2023/01/27 09:47:25;;;;;;;0.90;0.90;;;18.70;36.10;;;;;;4958667;28;20458;-67
2023/01/27 09:50:16;;;;;;;0.93;0.90;;;18.70;36.10;;;;;;4959676;28;20474;-68
2023/01/27 09:53:05;;;;;;;1.10;1.00;;;18.70;36.10;;;;;;4960559;28;20454;-67
2023/01/27 09:55:54;;;;;;;0.80;0.80;;;18.70;36.20;;;;;;4955966;28;20452;-68
2023/01/27 09:58:54;;;;;;;1.23;1.00;;;18.70;36.10;;;;;;4962002;28;20960;-67
2023/01/27 10:01:41;;;;;;;1.10;1.00;;;18.70;36.10;;;;;;4958492;28;21078;-67
2023/01/27 10:04:10;;;;;;;1.10;0.97;;;18.70;36.20;;;;;;4958572;28;21132;-67
2023/01/27 10:07:02;;;;;;;0.87;0.87;;;18.70;36.20;;;;;;4958581;28;20465;-67
2023/01/27 10:09:37;;;;;;;0.80;0.80;;;18.70;36.20;;;;;;4956931;28;20500;-67
2023/01/27 10:12:20;;;;;;;0.90;0.90;;;18.70;36.20;;;;;;4960310;28;20466;-67
2023/01/27 10:15:13;;;;;;;0.83;0.83;;;18.70;36.10;;;;;;4956376;28;20462;-68
2023/01/27 10:18:06;;;;;;;0.80;0.73;;;18.70;36.10;;;;;;4959573;28;20463;-68
2023/01/27 10:20:41;;;;;;;0.83;0.83;;;18.70;36.20;;;;;;4958840;28;20482;-67
2023/01/27 10:23:29;;;;;;;1.03;1.00;;;18.70;36.20;;;;;;4959599;28;20459;-68
2023/01/27 10:26:07;;;;;;;0.87;0.87;;;18.70;36.10;;;;;;4959627;28;20440;-68
2023/01/27 10:28:36;;;;;;;0.90;0.90;;;18.70;36.20;;;;;;4960568;28;20564;-68
2023/01/27 10:31:10;;;;;;;1.10;1.00;;;18.70;36.20;;;;;;4955495;28;20570;-68
2023/01/27 10:33:48;;;;;;;0.70;0.70;;;18.70;36.20;;;;;;4958942;28;20442;-67
2023/01/27 10:36:23;;;;;;;1.03;1.00;;;18.70;36.20;;;;;;4957704;28;20557;-67
2023/01/27 10:39:19;;;;;;;0.77;0.77;;;18.70;36.20;;;;;;4960774;28;20458;-68
2023/01/27 10:42:08;;;;;;;1.03;0.97;;;18.70;36.10;;;;;;4959182;28;21004;-67
2023/01/27 10:44:56;;;;;;;0.80;0.80;;;18.70;36.20;;;;;;4958321;28;20469;-67
2023/01/27 10:47:49;;;;;;;0.90;0.90;;;18.70;36.10;;;;;;4960309;28;20447;-68
2023/01/27 10:50:22;;;;;;;1.00;0.90;;;18.70;36.20;;;;;;4958965;28;20449;-68
2023/01/27 10:53:07;;;;;;;1.10;1.00;;;18.70;36.20;;;;;;4956950;28;20459;-68
2023/01/27 10:55:58;;;;;;;0.93;0.90;;;18.70;36.20;;;;;;4956598;28;20466;-68
2023/01/27 10:58:45;;;;;;;0.90;0.90;;;18.70;36.20;;;;;;4956890;28;20590;-68
2023/01/27 11:01:14;;;;;;;0.90;0.90;;;18.70;36.20;;;;;;4956777;28;20481;-67
2023/01/27 11:03:50;;;;;;;0.90;0.90;;;18.70;36.20;;;;;;4959956;28;20447;-68
2023/01/27 11:06:23;;;;;;;1.10;1.00;;;18.70;36.20;;;;;;4958680;28;20462;-68
2023/01/27 11:08:52;;;;;;;1.07;0.97;;;18.70;36.20;;;;;;4959878;28;20453;-68
2023/01/27 11:14:23;;;;;;;0.93;0.93;;;18.70;36.20;;;;;;4958605;28;20432;-67
2023/01/27 11:16:58;;;;;;;0.90;0.90;;;18.70;36.10;;;;;;4959579;28;20437;-68
2023/01/27 11:19:41;;;;;;;0.90;0.90;;;18.70;36.20;;;;;;4959774;28;20433;-68
2023/01/27 11:22:26;;;;;;;1.23;1.13;;;18.70;36.10;;;;;;4957469;28;21228;-68
2023/01/27 11:25:04;;;;;;;1.20;1.10;;;18.70;36.20;;;;;;4958470;28;20458;-68
2023/01/27 11:27:55;;;;;;;1.00;0.90;;;18.70;36.20;;;;;;4958559;28;20437;-69
2023/01/27 11:30:44;;;;;;;0.97;0.90;;;18.70;36.20;;;;;;4956629;28;20470;-68
2023/01/27 11:33:22;;;;;;;0.90;0.90;;;18.70;36.20;;;;;;4956815;28;20452;-69
2023/01/27 11:35:48;;;;;;;1.10;1.00;;;18.70;37.00;;;;;;4955586;28;21306;-69
2023/01/27 11:38:18;;;;;;;1.70;1.60;;;18.70;36.20;;;;;;4959683;28;20425;-69
2023/01/27 11:40:45;;;;;;;2.37;2.27;;;18.70;36.20;;;;;;4957869;28;20502;-69
2023/01/27 11:43:16;;;;;;;2.53;2.43;;;18.70;36.10;;;;;;4957567;28;20463;-69
2023/01/27 11:45:44;;;;;;;1.00;0.90;;;18.70;35.90;;;;;;4947845;28;20497;-68
2023/01/27 11:48:14;;;;;;;1.33;1.23;;;18.80;36.00;;;;;;4956531;28;20445;-68
2023/01/27 11:50:41;;;;;;;1.00;1.00;;;18.80;36.00;;;;;;4951306;28;20451;-68
2023/01/27 11:53:27;;;;;;;1.20;1.10;;;18.70;35.90;;;;;;4959919;28;20437;-68
2023/01/27 11:56:01;;;;;;;1.30;1.20;;;18.70;35.90;;;;;;4955742;28;20437;-68
2023/01/27 11:58:33;;;;;;;1.10;1.10;;;18.70;35.90;;;;;;4957526;28;20462;-70
2023/01/27 12:01:02;;;;;;;1.00;1.00;;;18.70;36.00;;;;;;4950328;28;20445;-68
2023/01/27 12:03:30;;;;;;;1.20;1.10;;;18.70;36.00;;;;;;4953285;28;20462;-69
2023/01/27 12:06:01;;;;;;;1.10;1.00;;;18.70;36.00;;;;;;4950107;28;20464;-68
2023/01/27 12:08:48;;;;;;;1.20;1.10;;;18.70;36.00;;;;;;4955165;28;20437;-68
2023/01/27 12:11:27;;;;;;;1.23;1.13;;;18.70;36.00;;;;;;4950484;28;21011;-68
2023/01/27 12:14:01;;;;;;;1.20;1.10;;;18.70;36.80;;;;;;4956999;28;20464;-68
2023/01/27 12:16:43;;;;;;;1.00;1.00;;;18.70;36.00;;;;;;4955858;28;20440;-68
2023/01/27 12:19:31;;;;;;;0.97;0.97;;;18.70;36.00;;;;;;4956276;28;20560;-68
2023/01/27 12:22:12;;;;;;;1.20;1.10;;;18.70;36.00;;;;;;4953474;28;20454;-68
2023/01/27 12:24:44;;;;;;;1.00;0.90;;;18.70;36.00;;;;;;4952062;28;20464;-68
2023/01/27 12:27:20;;;;;;;1.73;1.00;;;18.70;36.10;;;;;;4959146;28;20538;-68
2023/01/27 12:29:58;;;;;;;1.17;1.07;;;18.70;36.10;;;;;;4954541;28;20601;-68
2023/01/27 12:32:37;;;;;;;1.00;1.00;;;18.70;36.10;;;;;;4955775;28;20441;-68
2023/01/27 12:35:03;;;;;;;1.10;1.00;;;18.70;36.10;;;;;;4954694;28;21044;-68
2023/01/27 12:37:38;;;;;;;1.30;1.20;;;18.70;36.10;;;;;;4961014;28;20504;-68
2023/01/27 12:40:27;;;;;;;0.87;0.87;;;18.70;36.10;;;;;;4952106;28;20483;-69
2023/01/27 12:43:04;;;;;;;2.23;1.10;;;18.70;36.10;;;;;;4961171;28;20524;-68
2023/01/27 12:45:39;;;;;;;1.00;1.00;;;18.70;36.10;;;;;;4958130;28;20533;-68
2023/01/27 12:48:08;;;;;;;1.03;1.00;;;18.70;36.10;;;;;;4954143;28;20475;-67
2023/01/27 12:50:39;;;;;;;1.17;1.10;;;18.70;36.20;;;;;;4960011;28;20480;-68
2023/01/27 12:53:11;;;;;;;1.20;1.10;;;18.70;36.10;;;;;;4961812;28;20446;-67
2023/01/27 12:55:56;;;;;;;1.53;1.00;;;18.70;36.10;;;;;;4961818;28;20866;-67
2023/01/27 12:58:29;;;;;;;1.20;1.10;;;18.70;36.10;;;;;;4963879;28;20500;-68
2023/01/27 13:00:56;;;;;;;1.13;1.03;;;18.70;36.20;;;;;;4962772;28;20482;-68
2023/01/27 13:03:22;;;;;;;1.30;1.20;;;18.70;36.20;;;;;;4962111;28;20467;-68
2023/01/27 13:05:52;;;;;;;1.20;1.10;;;18.70;36.30;;;;;;4956177;28;20440;-68
2023/01/27 13:08:20;;;;;;;1.30;1.20;;;18.70;36.20;;;;;;4963387;28;20466;-68
2023/01/27 13:10:57;;;;;;;1.30;1.20;;;18.70;36.10;;;;;;4957077;28;20438;-69
2023/01/27 13:13:25;;;;;;;1.20;1.10;;;18.70;36.10;;;;;;4960189;28;20458;-68
2023/01/27 13:16:01;;;;;;;3.60;1.20;;;18.70;36.20;;;;;;4964326;28;20475;-68
2023/01/27 13:18:33;;;;;;;1.20;1.10;;;18.70;36.10;;;;;;4964088;28;20449;-68
2023/01/27 13:21:14;;;;;;;1.30;1.20;;;18.70;36.20;;;;;;4958906;28;20450;-68
2023/01/27 13:23:41;;;;;;;1.20;1.10;;;18.70;36.20;;;;;;4964556;28;20549;-68
2023/01/27 13:26:06;;;;;;;1.00;1.00;;;18.70;36.10;;;;;;4962547;28;20434;-67
2023/01/27 13:28:35;;;;;;;1.30;1.20;;;18.70;36.20;;;;;;4962159;28;20985;-68
2023/01/27 13:31:09;;;;;;;1.33;0.80;;;18.70;36.20;;;;;;4961733;28;20232;-68
2023/01/27 13:33:44;;;;;;;1.30;1.20;;;18.70;36.20;;;;;;4963891;28;21316;-67
2023/01/27 13:36:28;;;;;;;1.00;1.00;;;18.70;36.10;;;;;;4960190;28;20458;-68
2023/01/27 13:39:16;;;;;;;1.13;1.10;;;18.70;36.10;;;;;;4958662;28;20485;-68
2023/01/27 13:41:53;;;;;;;1.07;1.03;;;18.70;36.10;;;;;;4951405;28;20457;-67